sensor_id;sensor_type;location;lat;lon;timestamp;pressure;altitude;pressure_sealevel;temperature;humidity
23229;BME280;11783;50.350;6.576;2023-05-18T00:01:36;97115.91;;;6.57;71.55
23229;BME280;11783;50.350;6.576;2023-05-18T00:04:05;97109.59;;;6.52;71.19
23229;BME280;11783;50.350;6.576;2023-05-18T00:06:30;97107.50;;;6.47;72.27
23229;BME280;11783;50.350;6.576;2023-05-18T00:08:55;97110.13;;;6.41;72.38
23229;BME280;11783;50.350;6.576;2023-05-18T00:11:21;97105.38;;;6.29;72.68
23229;BME280;11783;50.350;6.576;2023-05-18T00:13:46;97112.03;;;6.19;73.29
23229;BME280;11783;50.350;6.576;2023-05-18T00:16:12;97112.53;;;6.07;73.64
23229;BME280;11783;50.350;6.576;2023-05-18T00:18:39;97114.53;;;5.99;73.70
23229;BME280;11783;50.350;6.576;2023-05-18T00:21:05;97105.13;;;5.90;74.01
23229;BME280;11783;50.350;6.576;2023-05-18T00:23:30;97108.69;;;5.82;74.08
23229;BME280;11783;50.350;6.576;2023-05-18T00:26:00;97101.66;;;5.68;75.58
23229;BME280;11783;50.350;6.576;2023-05-18T00:28:27;97113.00;;;5.62;75.16
23229;BME280;11783;50.350;6.576;2023-05-18T00:30:53;97106.44;;;5.58;75.65
23229;BME280;11783;50.350;6.576;2023-05-18T00:33:18;97106.81;;;5.55;74.99
23229;BME280;11783;50.350;6.576;2023-05-18T00:35:44;97109.22;;;5.50;75.90
23229;BME280;11783;50.350;6.576;2023-05-18T00:38:09;97106.72;;;5.41;76.12
23229;BME280;11783;50.350;6.576;2023-05-18T00:40:36;97108.66;;;5.33;76.95
23229;BME280;11783;50.350;6.576;2023-05-18T00:43:01;97108.16;;;5.23;76.89
23229;BME280;11783;50.350;6.576;2023-05-18T00:45:27;97104.81;;;5.14;78.51
23229;BME280;11783;50.350;6.576;2023-05-18T00:47:52;97102.13;;;5.07;77.44
23229;BME280;11783;50.350;6.576;2023-05-18T00:50:18;97103.03;;;5.00;78.53
23229;BME280;11783;50.350;6.576;2023-05-18T00:52:44;97091.63;;;4.93;78.12
23229;BME280;11783;50.350;6.576;2023-05-18T00:55:11;97100.16;;;4.95;77.86
23229;BME280;11783;50.350;6.576;2023-05-18T00:57:37;97094.88;;;4.95;78.05
23229;BME280;11783;50.350;6.576;2023-05-18T01:00:04;97096.09;;;4.92;78.13
23229;BME280;11783;50.350;6.576;2023-05-18T01:02:31;97094.06;;;4.94;77.39
23229;BME280;11783;50.350;6.576;2023-05-18T01:04:57;97091.88;;;4.98;77.39
23229;BME280;11783;50.350;6.576;2023-05-18T01:07:24;97090.63;;;4.94;77.69
23229;BME280;11783;50.350;6.576;2023-05-18T01:09:53;97089.13;;;4.84;78.40
23229;BME280;11783;50.350;6.576;2023-05-18T01:12:24;97095.47;;;4.75;78.95
23229;BME280;11783;50.350;6.576;2023-05-18T01:15:07;97095.22;;;4.70;78.72
23229;BME280;11783;50.350;6.576;2023-05-18T01:20:58;97084.34;;;4.44;80.53
23229;BME280;11783;50.350;6.576;2023-05-18T01:23:52;97084.66;;;4.34;80.81
23229;BME280;11783;50.350;6.576;2023-05-18T01:26:28;97083.91;;;4.25;81.03
23229;BME280;11783;50.350;6.576;2023-05-18T01:28:57;97084.03;;;4.17;81.89
23229;BME280;11783;50.350;6.576;2023-05-18T01:31:23;97087.03;;;4.14;82.42
23229;BME280;11783;50.350;6.576;2023-05-18T01:33:48;97085.75;;;4.10;82.39
23229;BME280;11783;50.350;6.576;2023-05-18T01:36:14;97084.47;;;4.06;81.95
23229;BME280;11783;50.350;6.576;2023-05-18T01:38:39;97085.28;;;4.07;80.83
23229;BME280;11783;50.350;6.576;2023-05-18T01:41:21;97093.81;;;4.09;80.95
23229;BME280;11783;50.350;6.576;2023-05-18T01:46:39;97083.22;;;4.17;80.22
23229;BME280;11783;50.350;6.576;2023-05-18T01:49:16;97084.03;;;4.17;80.76
23229;BME280;11783;50.350;6.576;2023-05-18T01:51:49;97087.38;;;4.11;80.72
23229;BME280;11783;50.350;6.576;2023-05-18T01:54:17;97096.97;;;4.04;80.71
23229;BME280;11783;50.350;6.576;2023-05-18T01:56:44;97088.19;;;3.97;80.90
23229;BME280;11783;50.350;6.576;2023-05-18T01:59:11;97091.88;;;3.88;81.48
23229;BME280;11783;50.350;6.576;2023-05-18T02:01:37;97086.72;;;3.80;82.11
23229;BME280;11783;50.350;6.576;2023-05-18T02:04:06;97079.56;;;3.74;81.97
23229;BME280;11783;50.350;6.576;2023-05-18T02:06:32;97083.50;;;3.70;82.48
23229;BME280;11783;50.350;6.576;2023-05-18T02:08:57;97078.81;;;3.65;83.28
23229;BME280;11783;50.350;6.576;2023-05-18T02:11:23;97078.72;;;3.58;83.08
23229;BME280;11783;50.350;6.576;2023-05-18T02:13:48;97081.69;;;3.55;82.42
23229;BME280;11783;50.350;6.576;2023-05-18T02:16:13;97080.56;;;3.50;82.69
23229;BME280;11783;50.350;6.576;2023-05-18T02:18:38;97082.75;;;3.46;82.26
23229;BME280;11783;50.350;6.576;2023-05-18T02:21:04;97076.03;;;3.44;82.83
23229;BME280;11783;50.350;6.576;2023-05-18T02:23:29;97076.41;;;3.41;82.82
23229;BME280;11783;50.350;6.576;2023-05-18T02:25:55;97079.38;;;3.38;83.02
23229;BME280;11783;50.350;6.576;2023-05-18T02:28:21;97082.19;;;3.36;83.40
23229;BME280;11783;50.350;6.576;2023-05-18T02:30:46;97085.50;;;3.30;83.33
23229;BME280;11783;50.350;6.576;2023-05-18T02:33:12;97077.16;;;3.26;83.20
23229;BME280;11783;50.350;6.576;2023-05-18T02:35:37;97081.50;;;3.19;82.63
23229;BME280;11783;50.350;6.576;2023-05-18T02:38:05;97078.56;;;3.14;82.99
23229;BME280;11783;50.350;6.576;2023-05-18T02:40:30;97078.91;;;3.11;82.96
23229;BME280;11783;50.350;6.576;2023-05-18T02:42:55;97081.53;;;3.11;83.00
23229;BME280;11783;50.350;6.576;2023-05-18T02:45:21;97079.91;;;3.10;83.43
23229;BME280;11783;50.350;6.576;2023-05-18T02:47:47;97073.56;;;3.04;83.34
23229;BME280;11783;50.350;6.576;2023-05-18T02:50:12;97074.91;;;3.00;84.34
23229;BME280;11783;50.350;6.576;2023-05-18T02:52:38;97076.22;;;2.96;84.67
23229;BME280;11783;50.350;6.576;2023-05-18T02:55:04;97072.66;;;2.89;85.48
23229;BME280;11783;50.350;6.576;2023-05-18T02:57:30;97071.09;;;2.80;85.36
23229;BME280;11783;50.350;6.576;2023-05-18T02:59:57;97071.41;;;2.77;85.71
23229;BME280;11783;50.350;6.576;2023-05-18T03:02:22;97072.94;;;2.71;85.63
23229;BME280;11783;50.350;6.576;2023-05-18T03:04:48;97071.47;;;2.69;85.65
23229;BME280;11783;50.350;6.576;2023-05-18T03:07:20;97065.13;;;2.63;87.13
23229;BME280;11783;50.350;6.576;2023-05-18T03:09:46;97069.88;;;2.60;86.33
23229;BME280;11783;50.350;6.576;2023-05-18T03:12:11;97072.66;;;2.58;86.38
23229;BME280;11783;50.350;6.576;2023-05-18T03:14:37;97077.44;;;2.55;87.15
23229;BME280;11783;50.350;6.576;2023-05-18T03:17:02;97067.94;;;2.54;87.24
23229;BME280;11783;50.350;6.576;2023-05-18T03:19:30;97069.28;;;2.50;87.80
23229;BME280;11783;50.350;6.576;2023-05-18T03:21:56;97072.25;;;2.47;88.16
23229;BME280;11783;50.350;6.576;2023-05-18T03:24:21;97067.03;;;2.38;88.45
23229;BME280;11783;50.350;6.576;2023-05-18T03:26:50;97069.53;;;2.32;88.35
23229;BME280;11783;50.350;6.576;2023-05-18T03:29:18;97079.84;;;2.33;88.18
23229;BME280;11783;50.350;6.576;2023-05-18T03:31:43;97077.06;;;2.35;86.77
23229;BME280;11783;50.350;6.576;2023-05-18T03:34:09;97079.31;;;2.38;87.28
23229;BME280;11783;50.350;6.576;2023-05-18T03:36:34;97078.50;;;2.37;88.04
23229;BME280;11783;50.350;6.576;2023-05-18T03:38:59;97083.59;;;2.39;87.07
23229;BME280;11783;50.350;6.576;2023-05-18T03:41:25;97079.31;;;2.38;87.65
23229;BME280;11783;50.350;6.576;2023-05-18T03:43:50;97081.31;;;2.36;88.14
23229;BME280;11783;50.350;6.576;2023-05-18T03:46:16;97083.94;;;2.36;88.19
23229;BME280;11783;50.350;6.576;2023-05-18T03:48:41;97084.91;;;2.35;88.35
23229;BME280;11783;50.350;6.576;2023-05-18T03:51:06;97085.91;;;2.34;88.64
23229;BME280;11783;50.350;6.576;2023-05-18T03:53:32;97089.69;;;2.31;90.03
23229;BME280;11783;50.350;6.576;2023-05-18T03:55:57;97083.97;;;2.28;89.02
23229;BME280;11783;50.350;6.576;2023-05-18T03:58:23;97087.75;;;2.25;89.35
23229;BME280;11783;50.350;6.576;2023-05-18T04:00:49;97082.81;;;2.22;90.18
23229;BME280;11783;50.350;6.576;2023-05-18T04:03:14;97080.38;;;2.21;90.18
23229;BME280;11783;50.350;6.576;2023-05-18T04:05:40;97086.44;;;2.21;89.27
23229;BME280;11783;50.350;6.576;2023-05-18T04:08:08;97081.38;;;2.20;89.46
23229;BME280;11783;50.350;6.576;2023-05-18T04:10:33;97080.56;;;2.19;89.96
23229;BME280;11783;50.350;6.576;2023-05-18T04:12:58;97085.97;;;2.18;90.83
23229;BME280;11783;50.350;6.576;2023-05-18T04:15:24;97086.94;;;2.17;91.06
23229;BME280;11783;50.350;6.576;2023-05-18T04:17:50;97088.28;;;2.12;90.75
23229;BME280;11783;50.350;6.576;2023-05-18T04:20:16;97095.34;;;2.12;90.37
23229;BME280;11783;50.350;6.576;2023-05-18T04:22:44;97087.81;;;2.09;91.35
23229;BME280;11783;50.350;6.576;2023-05-18T04:25:13;97085.34;;;2.07;91.99
23229;BME280;11783;50.350;6.576;2023-05-18T04:27:40;97087.34;;;2.05;91.66
23229;BME280;11783;50.350;6.576;2023-05-18T04:30:12;97084.53;;;2.07;91.97
23229;BME280;11783;50.350;6.576;2023-05-18T04:32:38;97095.03;;;2.07;92.11
23229;BME280;11783;50.350;6.576;2023-05-18T04:35:07;97091.75;;;2.05;93.04
23229;BME280;11783;50.350;6.576;2023-05-18T04:37:33;97088.47;;;2.03;93.66
23229;BME280;11783;50.350;6.576;2023-05-18T04:39:59;97096.16;;;2.04;93.92
23229;BME280;11783;50.350;6.576;2023-05-18T04:42:27;97091.59;;;2.06;93.88
23229;BME280;11783;50.350;6.576;2023-05-18T04:44:52;97089.97;;;2.05;94.36
23229;BME280;11783;50.350;6.576;2023-05-18T04:47:18;97084.38;;;2.08;94.33
23229;BME280;11783;50.350;6.576;2023-05-18T04:49:46;97090.44;;;2.09;94.41
23229;BME280;11783;50.350;6.576;2023-05-18T04:52:13;97095.84;;;2.07;94.91
23229;BME280;11783;50.350;6.576;2023-05-18T04:54:39;97093.22;;;2.07;95.29
23229;BME280;11783;50.350;6.576;2023-05-18T04:57:05;97098.31;;;2.09;95.32
23229;BME280;11783;50.350;6.576;2023-05-18T04:59:31;97097.47;;;2.08;96.21
23229;BME280;11783;50.350;6.576;2023-05-18T05:02:01;97095.84;;;2.07;96.15
23229;BME280;11783;50.350;6.576;2023-05-18T05:04:26;97094.03;;;2.08;96.44
23229;BME280;11783;50.350;6.576;2023-05-18T05:06:52;97096.66;;;2.08;96.46
23229;BME280;11783;50.350;6.576;2023-05-18T05:09:17;97097.47;;;2.08;97.29
23229;BME280;11783;50.350;6.576;2023-05-18T05:11:42;97103.53;;;2.09;97.84
23229;BME280;11783;50.350;6.576;2023-05-18T05:14:08;97099.94;;;2.10;97.34
23229;BME280;11783;50.350;6.576;2023-05-18T05:16:34;97095.34;;;2.12;97.66
23229;BME280;11783;50.350;6.576;2023-05-18T05:18:59;97100.41;;;2.13;98.01
23229;BME280;11783;50.350;6.576;2023-05-18T05:21:25;97090.09;;;2.12;98.31
23229;BME280;11783;50.350;6.576;2023-05-18T05:23:50;97090.91;;;2.12;99.18
23229;BME280;11783;50.350;6.576;2023-05-18T05:26:16;97088.28;;;2.12;96.94
23229;BME280;11783;50.350;6.576;2023-05-18T05:28:42;97094.66;;;2.18;97.08
23229;BME280;11783;50.350;6.576;2023-05-18T05:31:07;97096.44;;;2.26;96.57
23229;BME280;11783;50.350;6.576;2023-05-18T05:33:33;97100.19;;;2.31;95.29
23229;BME280;11783;50.350;6.576;2023-05-18T05:35:59;97100.13;;;2.39;95.88
23229;BME280;11783;50.350;6.576;2023-05-18T05:38:24;97104.41;;;2.40;95.48
23229;BME280;11783;50.350;6.576;2023-05-18T05:40:50;97112.44;;;2.47;94.54
23229;BME280;11783;50.350;6.576;2023-05-18T05:43:16;97101.94;;;2.47;96.70
23229;BME280;11783;50.350;6.576;2023-05-18T05:45:41;97101.72;;;2.57;97.61
23229;BME280;11783;50.350;6.576;2023-05-18T05:48:08;97105.97;;;2.58;94.99
23229;BME280;11783;50.350;6.576;2023-05-18T05:50:33;97104.31;;;2.65;95.64
23229;BME280;11783;50.350;6.576;2023-05-18T05:52:58;97096.91;;;2.68;98.30
23229;BME280;11783;50.350;6.576;2023-05-18T05:55:24;97098.19;;;2.72;99.59
23229;BME280;11783;50.350;6.576;2023-05-18T05:57:50;97102.28;;;2.75;98.44
23229;BME280;11783;50.350;6.576;2023-05-18T06:00:15;97101.91;;;2.78;99.90
23229;BME280;11783;50.350;6.576;2023-05-18T06:02:41;97100.25;;;2.85;100.00
23229;BME280;11783;50.350;6.576;2023-05-18T06:05:07;97105.97;;;2.89;100.00
23229;BME280;11783;50.350;6.576;2023-05-18T06:07:33;97103.81;;;2.92;100.00
23229;BME280;11783;50.350;6.576;2023-05-18T06:09:58;97108.31;;;2.84;100.00
23229;BME280;11783;50.350;6.576;2023-05-18T06:12:24;97106.78;;;2.89;100.00
23229;BME280;11783;50.350;6.576;2023-05-18T06:14:49;97108.53;;;2.97;100.00
23229;BME280;11783;50.350;6.576;2023-05-18T06:17:18;97113.47;;;3.00;100.00
23229;BME280;11783;50.350;6.576;2023-05-18T06:19:44;97111.94;;;3.06;100.00
23229;BME280;11783;50.350;6.576;2023-05-18T06:22:09;97109.44;;;3.12;100.00
23229;BME280;11783;50.350;6.576;2023-05-18T06:24:35;97116.91;;;3.23;100.00
23229;BME280;11783;50.350;6.576;2023-05-18T06:27:00;97107.97;;;3.32;100.00
23229;BME280;11783;50.350;6.576;2023-05-18T06:29:25;97115.00;;;3.40;100.00
23229;BME280;11783;50.350;6.576;2023-05-18T06:31:51;97116.03;;;3.54;100.00
23229;BME280;11783;50.350;6.576;2023-05-18T06:34:16;97123.59;;;3.72;100.00
23229;BME280;11783;50.350;6.576;2023-05-18T06:36:41;97122.72;;;3.79;100.00
23229;BME280;11783;50.350;6.576;2023-05-18T06:39:07;97119.72;;;3.82;100.00
23229;BME280;11783;50.350;6.576;2023-05-18T06:41:32;97122.75;;;3.94;100.00
23229;BME280;11783;50.350;6.576;2023-05-18T06:43:59;97116.50;;;3.95;100.00
23229;BME280;11783;50.350;6.576;2023-05-18T06:46:25;97108.94;;;4.07;100.00
23229;BME280;11783;50.350;6.576;2023-05-18T06:48:52;97116.84;;;4.21;100.00
23229;BME280;11783;50.350;6.576;2023-05-18T06:51:17;97116.94;;;4.43;100.00
23229;BME280;11783;50.350;6.576;2023-05-18T06:53:43;97125.09;;;4.63;100.00
23229;BME280;11783;50.350;6.576;2023-05-18T06:56:09;97131.34;;;4.76;100.00
23229;BME280;11783;50.350;6.576;2023-05-18T06:58:37;97118.25;;;4.83;100.00
23229;BME280;11783;50.350;6.576;2023-05-18T07:01:02;97126.50;;;4.95;100.00
23229;BME280;11783;50.350;6.576;2023-05-18T07:03:28;97122.38;;;5.07;99.13
23229;BME280;11783;50.350;6.576;2023-05-18T07:05:53;97125.81;;;5.22;100.00
23229;BME280;11783;50.350;6.576;2023-05-18T07:08:19;97125.66;;;5.30;100.00
23229;BME280;11783;50.350;6.576;2023-05-18T07:10:44;97122.72;;;5.40;99.52
23229;BME280;11783;50.350;6.576;2023-05-18T07:13:10;97119.38;;;5.53;100.00
23229;BME280;11783;50.350;6.576;2023-05-18T07:15:36;97107.91;;;5.60;100.00
23229;BME280;11783;50.350;6.576;2023-05-18T07:18:02;97111.44;;;5.74;100.00
23229;BME280;11783;50.350;6.576;2023-05-18T07:20:27;97115.22;;;5.86;100.00
23229;BME280;11783;50.350;6.576;2023-05-18T07:22:53;97121.06;;;6.03;98.96
23229;BME280;11783;50.350;6.576;2023-05-18T07:25:22;97115.47;;;6.19;99.11
23229;BME280;11783;50.350;6.576;2023-05-18T07:27:47;97100.97;;;6.36;95.14
23229;BME280;11783;50.350;6.576;2023-05-18T07:30:13;97108.38;;;6.54;96.96
23229;BME280;11783;50.350;6.576;2023-05-18T07:32:38;97105.19;;;6.72;95.30
23229;BME280;11783;50.350;6.576;2023-05-18T07:35:04;97117.06;;;6.89;87.38
23229;BME280;11783;50.350;6.576;2023-05-18T07:37:29;97109.59;;;7.13;89.28
23229;BME280;11783;50.350;6.576;2023-05-18T07:39:55;97110.88;;;7.37;85.86
23229;BME280;11783;50.350;6.576;2023-05-18T07:42:20;97108.88;;;7.65;91.99
23229;BME280;11783;50.350;6.576;2023-05-18T07:44:46;97102.16;;;7.89;78.61
23229;BME280;11783;50.350;6.576;2023-05-18T07:47:11;97107.84;;;8.06;77.57
23229;BME280;11783;50.350;6.576;2023-05-18T07:49:36;97106.78;;;8.27;84.42
23229;BME280;11783;50.350;6.576;2023-05-18T07:52:07;97096.78;;;8.48;79.33
23229;BME280;11783;50.350;6.576;2023-05-18T07:54:33;97099.19;;;8.63;76.05
23229;BME280;11783;50.350;6.576;2023-05-18T07:56:58;97103.19;;;8.86;79.19
23229;BME280;11783;50.350;6.576;2023-05-18T07:59:23;97103.47;;;9.09;76.53
23229;BME280;11783;50.350;6.576;2023-05-18T08:01:49;97099.78;;;9.17;73.17
23229;BME280;11783;50.350;6.576;2023-05-18T08:04:14;97101.94;;;9.33;76.32
23229;BME280;11783;50.350;6.576;2023-05-18T08:06:39;97105.50;;;9.45;71.01
23229;BME280;11783;50.350;6.576;2023-05-18T08:09:05;97109.84;;;9.71;69.48
23229;BME280;11783;50.350;6.576;2023-05-18T08:11:31;97096.88;;;9.81;66.29
23229;BME280;11783;50.350;6.576;2023-05-18T08:13:57;97095.63;;;10.09;72.89
23229;BME280;11783;50.350;6.576;2023-05-18T08:16:22;97103.00;;;10.31;67.56
23229;BME280;11783;50.350;6.576;2023-05-18T08:18:47;97089.97;;;10.48;68.07
23229;BME280;11783;50.350;6.576;2023-05-18T08:21:13;97085.22;;;10.69;68.53
23229;BME280;11783;50.350;6.576;2023-05-18T08:23:38;97092.47;;;10.80;65.37
23229;BME280;11783;50.350;6.576;2023-05-18T08:26:04;97090.66;;;10.92;68.08
23229;BME280;11783;50.350;6.576;2023-05-18T08:28:30;97098.19;;;10.95;64.22
23229;BME280;11783;50.350;6.576;2023-05-18T08:30:55;97086.81;;;11.06;61.04
23229;BME280;11783;50.350;6.576;2023-05-18T08:33:21;97085.03;;;11.18;61.82
23229;BME280;11783;50.350;6.576;2023-05-18T08:35:48;97081.09;;;11.21;63.44
23229;BME280;11783;50.350;6.576;2023-05-18T08:38:13;97081.91;;;11.21;61.34
23229;BME280;11783;50.350;6.576;2023-05-18T08:41:01;97082.31;;;11.48;62.88
23229;BME280;11783;50.350;6.576;2023-05-18T08:43:30;97079.81;;;11.53;63.07
23229;BME280;11783;50.350;6.576;2023-05-18T08:46:03;97083.63;;;11.69;60.89
23229;BME280;11783;50.350;6.576;2023-05-18T08:48:31;97080.00;;;11.94;60.14
23229;BME280;11783;50.350;6.576;2023-05-18T08:51:00;97089.63;;;12.06;57.82
23229;BME280;11783;50.350;6.576;2023-05-18T08:53:26;97087.31;;;12.22;59.16
23229;BME280;11783;50.350;6.576;2023-05-18T08:55:53;97079.91;;;12.35;57.57
23229;BME280;11783;50.350;6.576;2023-05-18T08:58:20;97070.38;;;12.51;58.29
23229;BME280;11783;50.350;6.576;2023-05-18T09:00:51;97083.47;;;12.53;54.29
23229;BME280;11783;50.350;6.576;2023-05-18T09:03:19;97076.47;;;12.63;55.82
23229;BME280;11783;50.350;6.576;2023-05-18T09:05:46;97079.97;;;12.64;56.01
23229;BME280;11783;50.350;6.576;2023-05-18T09:08:13;97079.94;;;12.76;56.88
23229;BME280;11783;50.350;6.576;2023-05-18T09:10:38;97084.06;;;12.95;54.18
23229;BME280;11783;50.350;6.576;2023-05-18T09:13:04;97080.88;;;13.21;54.32
23229;BME280;11783;50.350;6.576;2023-05-18T09:15:32;97076.19;;;13.28;56.00
23229;BME280;11783;50.350;6.576;2023-05-18T09:17:59;97080.69;;;13.56;54.49
23229;BME280;11783;50.350;6.576;2023-05-18T09:20:25;97078.22;;;13.83;54.48
23229;BME280;11783;50.350;6.576;2023-05-18T09:22:50;97081.03;;;13.93;51.75
23229;BME280;11783;50.350;6.576;2023-05-18T09:25:17;97082.19;;;13.98;52.05
23229;BME280;11783;50.350;6.576;2023-05-18T09:27:43;97080.56;;;13.97;53.36
23229;BME280;11783;50.350;6.576;2023-05-18T09:30:11;97080.06;;;13.66;49.73
23229;BME280;11783;50.350;6.576;2023-05-18T09:32:37;97081.38;;;13.80;53.76
23229;BME280;11783;50.350;6.576;2023-05-18T09:35:04;97083.38;;;13.73;53.04
23229;BME280;11783;50.350;6.576;2023-05-18T09:37:32;97074.31;;;13.57;51.19
23229;BME280;11783;50.350;6.576;2023-05-18T09:40:02;97075.84;;;13.70;51.37
23229;BME280;11783;50.350;6.576;2023-05-18T09:42:40;97077.78;;;13.75;49.34
23229;BME280;11783;50.350;6.576;2023-05-18T09:45:26;97081.94;;;13.66;54.40
23229;BME280;11783;50.350;6.576;2023-05-18T09:47:52;97074.91;;;13.76;55.27
23229;BME280;11783;50.350;6.576;2023-05-18T09:50:22;97078.66;;;13.47;50.87
23229;BME280;11783;50.350;6.576;2023-05-18T09:52:48;97068.63;;;13.54;53.51
23229;BME280;11783;50.350;6.576;2023-05-18T09:55:15;97070.09;;;13.45;50.41
23229;BME280;11783;50.350;6.576;2023-05-18T09:57:45;97065.16;;;13.53;53.11
23229;BME280;11783;50.350;6.576;2023-05-18T10:00:12;97060.16;;;13.74;54.87
23229;BME280;11783;50.350;6.576;2023-05-18T10:02:41;97070.84;;;14.07;55.72
23229;BME280;11783;50.350;6.576;2023-05-18T10:05:27;97069.28;;;14.11;53.01
23229;BME280;11783;50.350;6.576;2023-05-18T10:07:56;97072.06;;;14.16;51.90
23229;BME280;11783;50.350;6.576;2023-05-18T10:10:24;97066.72;;;14.16;50.55
23229;BME280;11783;50.350;6.576;2023-05-18T10:12:50;97072.00;;;14.50;51.61
23229;BME280;11783;50.350;6.576;2023-05-18T10:15:18;97068.22;;;14.68;49.05
23229;BME280;11783;50.350;6.576;2023-05-18T10:17:45;97076.63;;;14.54;47.43
23229;BME280;11783;50.350;6.576;2023-05-18T10:20:14;97063.50;;;14.53;51.48
23229;BME280;11783;50.350;6.576;2023-05-18T10:22:44;97056.28;;;14.97;52.60
23229;BME280;11783;50.350;6.576;2023-05-18T10:25:10;97050.00;;;14.87;49.23
23229;BME280;11783;50.350;6.576;2023-05-18T10:27:36;97040.09;;;14.87;50.06
23229;BME280;11783;50.350;6.576;2023-05-18T10:30:05;97046.50;;;15.08;50.97
23229;BME280;11783;50.350;6.576;2023-05-18T10:32:34;97044.03;;;15.28;48.26
23229;BME280;11783;50.350;6.576;2023-05-18T10:35:01;97044.03;;;15.28;49.27
23229;BME280;11783;50.350;6.576;2023-05-18T10:37:28;97043.97;;;15.50;49.47
23229;BME280;11783;50.350;6.576;2023-05-18T10:39:55;97036.91;;;15.66;48.04
23229;BME280;11783;50.350;6.576;2023-05-18T10:42:22;97043.44;;;15.80;48.30
23229;BME280;11783;50.350;6.576;2023-05-18T10:44:51;97036.38;;;15.64;48.50
23229;BME280;11783;50.350;6.576;2023-05-18T10:47:18;97041.03;;;15.79;48.94
23229;BME280;11783;50.350;6.576;2023-05-18T10:49:46;97032.59;;;15.97;52.31
23229;BME280;11783;50.350;6.576;2023-05-18T10:52:12;97038.56;;;16.09;45.65
23229;BME280;11783;50.350;6.576;2023-05-18T10:54:40;97030.41;;;15.94;47.31
23229;BME280;11783;50.350;6.576;2023-05-18T10:57:09;97026.47;;;16.01;46.83
23229;BME280;11783;50.350;6.576;2023-05-18T10:59:38;97023.56;;;16.08;47.00
23229;BME280;11783;50.350;6.576;2023-05-18T11:02:05;97032.66;;;16.07;44.90
23229;BME280;11783;50.350;6.576;2023-05-18T11:04:31;97040.69;;;16.02;46.29
23229;BME280;11783;50.350;6.576;2023-05-18T11:07:00;97039.00;;;15.96;46.48
23229;BME280;11783;50.350;6.576;2023-05-18T11:09:27;97041.69;;;15.96;44.17
23229;BME280;11783;50.350;6.576;2023-05-18T11:11:56;97036.41;;;16.06;47.14
23229;BME280;11783;50.350;6.576;2023-05-18T11:14:29;97035.97;;;16.19;44.96
23229;BME280;11783;50.350;6.576;2023-05-18T11:17:18;97034.94;;;16.30;44.96
23229;BME280;11783;50.350;6.576;2023-05-18T11:27:52;97019.47;;;17.10;44.92
23229;BME280;11783;50.350;6.576;2023-05-18T11:30:28;97020.31;;;17.21;47.30
23229;BME280;11783;50.350;6.576;2023-05-18T11:36:03;97018.59;;;16.84;40.91
23229;BME280;11783;50.350;6.576;2023-05-18T11:39:03;97022.19;;;17.15;43.50
23229;BME280;11783;50.350;6.576;2023-05-18T11:41:35;97022.22;;;17.36;41.33
23229;BME280;11783;50.350;6.576;2023-05-18T11:44:14;97018.16;;;17.23;45.00
23229;BME280;11783;50.350;6.576;2023-05-18T11:46:49;97018.19;;;17.33;42.71
23229;BME280;11783;50.350;6.576;2023-05-18T11:49:16;97013.91;;;17.37;43.81
23229;BME280;11783;50.350;6.576;2023-05-18T11:54:23;97012.28;;;17.41;43.79
23229;BME280;11783;50.350;6.576;2023-05-18T11:56:50;97020.34;;;17.56;46.28
23229;BME280;11783;50.350;6.576;2023-05-18T11:59:16;97013.38;;;17.55;44.35
23229;BME280;11783;50.350;6.576;2023-05-18T12:01:41;97012.53;;;17.45;43.01
23229;BME280;11783;50.350;6.576;2023-05-18T12:04:07;97012.28;;;17.46;44.07
23229;BME280;11783;50.350;6.576;2023-05-18T12:06:34;97011.50;;;17.51;43.08
23229;BME280;11783;50.350;6.576;2023-05-18T12:09:02;97002.63;;;17.55;43.38
23229;BME280;11783;50.350;6.576;2023-05-18T12:11:28;97002.34;;;17.62;40.41
23229;BME280;11783;50.350;6.576;2023-05-18T12:13:55;97000.97;;;17.24;42.30
23229;BME280;11783;50.350;6.576;2023-05-18T12:16:21;96999.94;;;17.35;43.67
23229;BME280;11783;50.350;6.576;2023-05-18T12:18:50;97000.44;;;17.47;43.92
23229;BME280;11783;50.350;6.576;2023-05-18T12:21:22;96998.03;;;17.46;42.37
23229;BME280;11783;50.350;6.576;2023-05-18T12:23:56;96991.88;;;17.50;42.45
23229;BME280;11783;50.350;6.576;2023-05-18T12:26:21;96997.28;;;17.71;42.66
23229;BME280;11783;50.350;6.576;2023-05-18T12:28:51;96990.25;;;18.00;43.78
23229;BME280;11783;50.350;6.576;2023-05-18T12:31:16;97001.25;;;18.19;40.55
23229;BME280;11783;50.350;6.576;2023-05-18T12:33:42;96994.28;;;18.13;39.99
23229;BME280;11783;50.350;6.576;2023-05-18T12:36:11;96980.84;;;17.98;41.63
23229;BME280;11783;50.350;6.576;2023-05-18T12:38:37;96990.53;;;18.04;40.40
23229;BME280;11783;50.350;6.576;2023-05-18T12:41:02;96985.69;;;17.96;41.83
23229;BME280;11783;50.350;6.576;2023-05-18T12:43:32;96989.69;;;18.03;40.66
23229;BME280;11783;50.350;6.576;2023-05-18T12:46:00;96982.47;;;18.04;41.00
23229;BME280;11783;50.350;6.576;2023-05-18T12:48:25;96985.41;;;18.02;40.59
23229;BME280;11783;50.350;6.576;2023-05-18T12:50:51;96984.34;;;17.98;42.89
23229;BME280;11783;50.350;6.576;2023-05-18T12:53:17;96980.81;;;18.13;42.55
23229;BME280;11783;50.350;6.576;2023-05-18T12:55:42;96980.31;;;18.06;41.83
23229;BME280;11783;50.350;6.576;2023-05-18T12:58:13;96984.06;;;18.05;40.38
23229;BME280;11783;50.350;6.576;2023-05-18T13:00:43;96986.44;;;18.22;41.16
23229;BME280;11783;50.350;6.576;2023-05-18T13:03:10;96986.94;;;18.39;41.85
23229;BME280;11783;50.350;6.576;2023-05-18T13:05:38;96988.03;;;18.33;39.69
23229;BME280;11783;50.350;6.576;2023-05-18T13:08:04;96978.88;;;18.34;40.00
23229;BME280;11783;50.350;6.576;2023-05-18T13:10:29;96966.28;;;18.24;39.88
23229;BME280;11783;50.350;6.576;2023-05-18T13:12:59;96966.19;;;18.39;39.75
23229;BME280;11783;50.350;6.576;2023-05-18T13:15:32;96980.75;;;18.38;39.30
23229;BME280;11783;50.350;6.576;2023-05-18T13:20:41;96974.03;;;18.41;36.77
23229;BME280;11783;50.350;6.576;2023-05-18T13:23:13;96985.84;;;18.40;38.56
23229;BME280;11783;50.350;6.576;2023-05-18T13:25:39;96974.28;;;18.39;39.71
23229;BME280;11783;50.350;6.576;2023-05-18T13:28:05;96963.97;;;18.57;42.95